Time;durP1;ratioP1;P1;durP2;ratioP2;P2;SDS_P1;SDS_P2;PMS_P1;PMS_P2;Temp;Humidity;BMP_temperature;BMP_pressure;BME280_temperature;BME280_humidity;BME280_pressure;Samples;Min_cycle;Max_cycle;Signal;HPM_P1;HPM_P2
2021/09/16 00:00:46;;;;;;;5.60;2.70;;;19.00;99.90;;;;;;5113697;28;20204;-69
2021/09/16 00:03:14;;;;;;;5.47;2.90;;;19.00;99.90;;;;;;5113398;28;20203;-68
2021/09/16 00:05:41;;;;;;;3.10;2.65;;;19.10;99.90;;;;;;5113653;28;20219;-69
2021/09/16 00:08:07;;;;;;;3.80;2.60;;;19.00;99.90;;;;;;5113648;28;20200;-70
2021/09/16 00:10:34;;;;;;;3.13;2.58;;;19.00;99.90;;;;;;5113541;28;20204;-69
2021/09/16 00:13:01;;;;;;;3.92;2.17;;;19.00;99.90;;;;;;5113202;28;20207;-69
2021/09/16 00:15:27;;;;;;;4.75;2.63;;;19.00;99.90;;;;;;5112922;28;20423;-70
2021/09/16 00:17:54;;;;;;;3.70;2.28;;;19.00;99.90;;;;;;5112702;28;20227;-70
2021/09/16 00:20:22;;;;;;;3.95;2.35;;;19.00;99.90;;;;;;5113107;28;20208;-69
2021/09/16 00:22:49;;;;;;;2.38;2.10;;;19.10;99.90;;;;;;5112956;28;20728;-70
2021/09/16 00:25:15;;;;;;;5.95;2.28;;;19.20;99.90;;;;;;5112602;28;20643;-70
2021/09/16 00:27:42;;;;;;;4.30;2.60;;;19.30;99.90;;;;;;5112928;28;20204;-69
2021/09/16 00:30:10;;;;;;;2.22;1.90;;;19.40;99.90;;;;;;5112824;28;20203;-69
2021/09/16 00:32:38;;;;;;;3.20;1.80;;;19.50;99.90;;;;;;5113261;28;20200;-69
2021/09/16 00:35:06;;;;;;;3.35;2.22;;;19.70;99.90;;;;;;5112544;28;20717;-69
2021/09/16 00:37:34;;;;;;;3.35;2.05;;;19.80;99.90;;;;;;5113010;27;20678;-69
2021/09/16 00:40:00;;;;;;;3.08;2.17;;;19.80;99.90;;;;;;5112640;28;20231;-69
2021/09/16 00:42:27;;;;;;;4.28;2.30;;;19.80;99.90;;;;;;5112615;27;20299;-70
2021/09/16 00:44:54;;;;;;;3.20;2.20;;;19.90;99.90;;;;;;5113329;28;20203;-70
2021/09/16 00:47:20;;;;;;;2.65;1.90;;;19.90;99.90;;;;;;5114963;28;20208;-69
2021/09/16 00:49:47;;;;;;;3.67;2.10;;;19.90;99.90;;;;;;5114714;28;20199;-69
2021/09/16 00:52:14;;;;;;;2.75;1.63;;;20.00;99.90;;;;;;5116648;28;20299;-69
2021/09/16 00:54:46;;;;;;;4.03;1.70;;;19.90;99.90;;;;;;5115761;28;20239;-68
2021/09/16 00:57:15;;;;;;;6.68;1.95;;;19.90;99.90;;;;;;5113587;28;20208;-69
2021/09/16 00:59:44;;;;;;;3.85;1.75;;;19.90;99.90;;;;;;5112959;28;20227;-69
2021/09/16 01:02:10;;;;;;;4.40;1.55;;;19.80;99.90;;;;;;5113070;28;20208;-70
2021/09/16 01:04:37;;;;;;;1.92;1.65;;;19.80;99.90;;;;;;5112691;28;20204;-69
2021/09/16 01:07:04;;;;;;;3.80;1.80;;;19.90;99.90;;;;;;5112491;28;20223;-69
2021/09/16 01:09:32;;;;;;;1.85;1.38;;;19.90;99.90;;;;;;5112238;28;20196;-69
2021/09/16 01:12:00;;;;;;;1.67;1.20;;;20.00;99.90;;;;;;5112273;28;20203;-69
2021/09/16 01:14:28;;;;;;;2.28;1.30;;;20.00;99.90;;;;;;5112196;28;20224;-69
2021/09/16 01:16:56;;;;;;;2.38;1.40;;;20.10;99.90;;;;;;5112215;28;20254;-71
2021/09/16 01:19:23;;;;;;;1.98;1.30;;;20.10;99.90;;;;;;5111863;28;20223;-70
2021/09/16 01:21:50;;;;;;;2.30;1.23;;;20.20;99.90;;;;;;5111958;28;20207;-69
2021/09/16 01:24:18;;;;;;;4.28;1.45;;;20.10;99.90;;;;;;5111392;28;20204;-69
2021/09/16 01:26:46;;;;;;;1.25;1.05;;;20.20;99.90;;;;;;5111999;28;20223;-69
2021/09/16 01:29:13;;;;;;;1.42;1.00;;;20.10;99.90;;;;;;5112066;28;20590;-69
2021/09/16 01:31:42;;;;;;;2.20;1.23;;;20.10;99.90;;;;;;5111868;28;20207;-70
2021/09/16 01:34:10;;;;;;;2.40;1.20;;;20.10;99.90;;;;;;5111869;28;20248;-69
2021/09/16 01:36:38;;;;;;;1.10;1.00;;;20.20;99.90;;;;;;5111649;28;20269;-69
2021/09/16 01:39:06;;;;;;;2.85;1.35;;;20.20;99.90;;;;;;5111436;28;20220;-69
2021/09/16 01:41:35;;;;;;;4.10;1.00;;;20.40;99.90;;;;;;5111626;28;20664;-70
2021/09/16 01:44:02;;;;;;;1.67;1.05;;;20.40;99.90;;;;;;5111477;28;20211;-69
2021/09/16 01:46:29;;;;;;;1.95;1.17;;;20.30;99.90;;;;;;5111510;28;20223;-71
2021/09/16 01:48:57;;;;;;;2.58;0.95;;;20.30;99.90;;;;;;5111412;28;20226;-71
2021/09/16 01:51:23;;;;;;;1.60;1.50;;;20.30;99.90;;;;;;5111801;28;20260;-70
2021/09/16 01:53:50;;;;;;;4.57;0.95;;;20.40;99.90;;;;;;5111277;28;20222;-70
2021/09/16 01:56:17;;;;;;;1.70;1.08;;;20.40;99.90;;;;;;5111260;28;20780;-71
2021/09/16 01:58:45;;;;;;;2.45;0.90;;;20.50;99.90;;;;;;5111408;28;20580;-70
2021/09/16 02:01:12;;;;;;;2.28;1.10;;;20.60;99.90;;;;;;5111495;28;20200;-70
2021/09/16 02:03:38;;;;;;;1.15;0.90;;;20.60;99.90;;;;;;5111356;28;20204;-69
2021/09/16 02:06:05;;;;;;;1.77;1.00;;;20.70;99.90;;;;;;5111415;28;20223;-71
2021/09/16 02:08:32;;;;;;;1.10;0.98;;;20.70;99.90;;;;;;5111412;28;20207;-70
2021/09/16 02:10:58;;;;;;;3.13;1.00;;;20.70;99.90;;;;;;5111682;28;20694;-70
2021/09/16 02:13:25;;;;;;;1.67;0.98;;;20.60;99.90;;;;;;5111767;28;20207;-69
2021/09/16 02:15:53;;;;;;;1.10;1.00;;;20.60;99.90;;;;;;5111408;28;20280;-70
2021/09/16 02:18:20;;;;;;;3.83;1.40;;;20.50;99.90;;;;;;5111291;28;20203;-70
2021/09/16 02:20:47;;;;;;;3.38;1.50;;;20.40;99.90;;;;;;5111215;28;20208;-70
2021/09/16 02:23:13;;;;;;;2.22;1.10;;;20.20;99.90;;;;;;5111465;28;20207;-69
2021/09/16 02:25:40;;;;;;;3.67;1.45;;;20.10;99.90;;;;;;5110804;28;20718;-70
2021/09/16 02:28:07;;;;;;;2.45;1.20;;;20.10;99.90;;;;;;5111117;28;20207;-70
2021/09/16 02:30:33;;;;;;;2.03;1.20;;;20.00;99.90;;;;;;5111204;28;20601;-70
2021/09/16 02:33:04;;;;;;;1.38;1.00;;;20.00;99.90;;;;;;5111177;28;20203;-70
2021/09/16 02:35:31;;;;;;;2.28;1.13;;;20.00;99.90;;;;;;5111059;28;20731;-71
2021/09/16 02:37:57;;;;;;;1.85;1.13;;;20.00;99.90;;;;;;5114366;28;20208;-71
2021/09/16 02:40:24;;;;;;;1.92;1.15;;;19.90;99.90;;;;;;5115056;28;20614;-70
2021/09/16 02:42:51;;;;;;;2.53;1.30;;;20.00;99.90;;;;;;5115033;28;20200;-70
2021/09/16 02:45:17;;;;;;;1.30;1.20;;;20.00;99.90;;;;;;5114592;28;20723;-70
2021/09/16 02:47:44;;;;;;;1.80;1.35;;;20.00;99.90;;;;;;5115120;28;20199;-71
2021/09/16 02:50:12;;;;;;;1.75;1.10;;;19.90;99.90;;;;;;5115100;28;20210;-70
2021/09/16 02:52:39;;;;;;;2.10;1.30;;;19.90;99.90;;;;;;5114677;28;20215;-70
2021/09/16 02:55:07;;;;;;;4.57;1.90;;;19.90;99.90;;;;;;5114294;27;20322;-71
2021/09/16 02:57:34;;;;;;;3.53;1.30;;;19.80;99.90;;;;;;5114695;28;20210;-72
2021/09/16 03:00:00;;;;;;;2.28;1.48;;;19.80;99.90;;;;;;5114547;28;20216;-71
2021/09/16 03:02:27;;;;;;;3.97;1.15;;;19.80;99.90;;;;;;5114516;28;20200;-70
2021/09/16 03:04:54;;;;;;;3.85;1.50;;;19.80;99.90;;;;;;5114280;28;20668;-70
2021/09/16 03:07:22;;;;;;;2.55;1.52;;;19.80;99.90;;;;;;5114403;28;20712;-71
2021/09/16 03:09:48;;;;;;;1.58;1.10;;;19.80;99.90;;;;;;5114277;28;20671;-71
2021/09/16 03:12:15;;;;;;;1.63;1.23;;;19.80;99.90;;;;;;5114420;28;20589;-70
2021/09/16 03:14:42;;;;;;;2.90;1.27;;;19.80;99.90;;;;;;5114212;28;20208;-70
2021/09/16 03:17:08;;;;;;;2.22;1.27;;;19.80;99.90;;;;;;5114029;28;20223;-70
2021/09/16 03:19:35;;;;;;;5.57;1.75;;;19.70;99.90;;;;;;5113956;27;20593;-70
2021/09/16 03:22:02;;;;;;;2.80;1.50;;;19.70;99.90;;;;;;5114453;28;20609;-67
2021/09/16 03:24:30;;;;;;;2.60;1.85;;;19.70;99.90;;;;;;5114121;27;20208;-70
2021/09/16 03:26:56;;;;;;;2.70;1.55;;;19.70;99.90;;;;;;5114172;28;20515;-70
2021/09/16 03:29:23;;;;;;;1.75;1.50;;;19.80;99.90;;;;;;5114126;28;20204;-70
2021/09/16 03:31:52;;;;;;;4.43;2.03;;;19.80;99.90;;;;;;5114598;28;20245;-69
2021/09/16 03:34:19;;;;;;;3.00;1.40;;;19.90;99.90;;;;;;5114027;28;20767;-70
2021/09/16 03:36:46;;;;;;;3.00;1.30;;;19.90;99.90;;;;;;5113901;28;20742;-70
2021/09/16 03:39:13;;;;;;;3.60;1.20;;;19.80;99.90;;;;;;5113755;28;20255;-71
2021/09/16 03:41:41;;;;;;;2.30;1.70;;;19.80;99.90;;;;;;5113867;28;20219;-70
2021/09/16 03:44:08;;;;;;;5.40;2.38;;;19.80;99.90;;;;;;5113653;28;20584;-70
2021/09/16 03:46:35;;;;;;;4.60;1.50;;;19.80;99.90;;;;;;5113566;28;20223;-70
2021/09/16 03:49:01;;;;;;;3.47;1.45;;;19.80;99.90;;;;;;5113330;28;20223;-70
2021/09/16 03:51:28;;;;;;;5.50;1.40;;;19.80;99.90;;;;;;5114066;28;20276;-70
2021/09/16 03:53:55;;;;;;;3.47;1.80;;;19.80;99.90;;;;;;5113453;28;20261;-69
2021/09/16 03:56:21;;;;;;;2.13;1.10;;;19.80;99.90;;;;;;5113337;28;20227;-70
2021/09/16 03:58:49;;;;;;;2.65;2.10;;;19.80;99.90;;;;;;5113181;27;20199;-69
2021/09/16 04:01:16;;;;;;;2.40;2.17;;;19.80;99.90;;;;;;5113636;28;20207;-69
2021/09/16 04:03:42;;;;;;;2.70;1.48;;;19.80;99.90;;;;;;5113362;28;20203;-69
2021/09/16 04:06:09;;;;;;;3.33;2.10;;;19.80;99.90;;;;;;5113888;27;20220;-69
2021/09/16 04:08:36;;;;;;;5.22;3.03;;;19.80;99.90;;;;;;5113293;28;20214;-69
2021/09/16 04:11:02;;;;;;;6.13;4.35;;;19.90;99.90;;;;;;5113236;28;20206;-69
2021/09/16 04:13:29;;;;;;;2.63;2.28;;;19.90;99.90;;;;;;5112973;28;20211;-69
2021/09/16 04:15:57;;;;;;;5.60;1.70;;;20.00;99.90;;;;;;5113176;28;20223;-70
2021/09/16 04:18:24;;;;;;;3.25;2.35;;;20.00;99.90;;;;;;5113152;28;20203;-70
2021/09/16 04:20:51;;;;;;;10.18;8.23;;;20.00;99.90;;;;;;5113128;28;20565;-70
2021/09/16 04:23:17;;;;;;;3.00;2.40;;;20.00;99.90;;;;;;5112915;28;20199;-70
2021/09/16 04:25:44;;;;;;;1.67;1.55;;;20.00;99.90;;;;;;5113298;28;20585;-70
2021/09/16 04:28:11;;;;;;;2.45;1.30;;;20.00;99.90;;;;;;5113045;28;20207;-70
2021/09/16 04:30:37;;;;;;;2.58;1.60;;;20.10;99.90;;;;;;5113408;28;20204;-70
2021/09/16 04:33:05;;;;;;;2.65;1.40;;;20.10;99.90;;;;;;5114262;28;20203;-68
2021/09/16 04:35:32;;;;;;;4.38;2.35;;;20.00;99.90;;;;;;5112563;28;20595;-69
2021/09/16 04:37:59;;;;;;;5.68;2.17;;;20.00;99.90;;;;;;5112591;27;20215;-69
2021/09/16 04:40:25;;;;;;;3.08;1.88;;;19.90;99.90;;;;;;5112463;28;20216;-69
2021/09/16 04:42:52;;;;;;;8.57;6.88;;;19.90;99.90;;;;;;5112859;28;20208;-69
2021/09/16 04:45:19;;;;;;;2.25;1.90;;;20.00;99.90;;;;;;5112454;28;20231;-69
2021/09/16 04:47:45;;;;;;;3.80;2.00;;;19.90;99.90;;;;;;5112284;28;20204;-70
2021/09/16 04:50:13;;;;;;;3.60;1.90;;;19.90;99.90;;;;;;5113071;28;20200;-70
2021/09/16 04:52:40;;;;;;;2.13;1.60;;;20.00;99.90;;;;;;5112442;27;20207;-70
2021/09/16 04:55:08;;;;;;;3.08;2.17;;;20.00;99.90;;;;;;5112203;28;20231;-69
2021/09/16 04:57:35;;;;;;;2.83;2.00;;;20.00;99.90;;;;;;5112218;28;20206;-69
2021/09/16 05:00:02;;;;;;;4.85;1.55;;;20.00;99.90;;;;;;5111469;28;20219;-70
2021/09/16 05:02:29;;;;;;;2.22;1.90;;;20.00;99.90;;;;;;5112123;28;20242;-69
2021/09/16 05:04:55;;;;;;;5.25;2.10;;;19.90;99.90;;;;;;5111977;28;20207;-70
2021/09/16 05:07:24;;;;;;;2.45;1.67;;;19.90;99.90;;;;;;5111997;28;20207;-71
2021/09/16 05:09:51;;;;;;;3.20;2.05;;;19.90;99.90;;;;;;5112114;28;20203;-71
2021/09/16 05:12:17;;;;;;;2.58;1.58;;;19.90;99.90;;;;;;5112053;28;20245;-70
2021/09/16 05:14:44;;;;;;;3.67;2.03;;;19.90;99.90;;;;;;5111681;28;20291;-70
2021/09/16 05:17:11;;;;;;;1.67;1.33;;;19.90;99.90;;;;;;5111670;28;20555;-71
2021/09/16 05:19:38;;;;;;;3.65;1.70;;;20.00;99.90;;;;;;5111743;28;20224;-71
2021/09/16 05:22:04;;;;;;;3.47;1.83;;;20.00;99.90;;;;;;5111853;28;20203;-71
2021/09/16 05:24:33;;;;;;;2.47;1.88;;;20.00;99.90;;;;;;5111722;28;20259;-70
2021/09/16 05:27:00;;;;;;;2.97;1.70;;;20.10;99.90;;;;;;5111854;28;20219;-70
2021/09/16 05:29:27;;;;;;;2.50;1.52;;;20.10;99.90;;;;;;5111760;28;20215;-70
2021/09/16 05:31:53;;;;;;;2.22;1.60;;;20.20;99.90;;;;;;5112043;28;20203;-70
2021/09/16 05:34:20;;;;;;;4.22;2.67;;;20.20;99.90;;;;;;5111652;28;20211;-70
2021/09/16 05:36:47;;;;;;;3.28;1.60;;;20.20;99.90;;;;;;5111476;28;20231;-71
2021/09/16 05:39:14;;;;;;;4.30;1.80;;;20.20;99.90;;;;;;5111372;27;20253;-69
2021/09/16 05:41:42;;;;;;;2.58;1.83;;;20.20;99.90;;;;;;5111431;28;20268;-69
2021/09/16 05:44:08;;;;;;;1.98;1.70;;;20.30;99.90;;;;;;5111354;27;20196;-70
2021/09/16 05:46:35;;;;;;;2.13;1.60;;;20.20;99.90;;;;;;5111516;28;20707;-69
2021/09/16 05:49:02;;;;;;;3.47;1.77;;;20.10;99.90;;;;;;5111470;28;20213;-69
2021/09/16 05:51:29;;;;;;;5.43;1.80;;;20.00;99.90;;;;;;5111805;28;20337;-69
2021/09/16 05:53:56;;;;;;;2.97;1.85;;;20.10;99.90;;;;;;5111665;28;20211;-70
2021/09/16 05:56:22;;;;;;;3.65;1.45;;;20.00;99.90;;;;;;5111651;28;20268;-69
2021/09/16 05:58:50;;;;;;;3.63;1.60;;;20.00;99.90;;;;;;5111279;28;20207;-69
2021/09/16 06:01:17;;;;;;;2.40;1.85;;;19.90;99.90;;;;;;5110911;28;20223;-70
2021/09/16 06:03:44;;;;;;;3.30;2.08;;;19.90;99.90;;;;;;5110675;28;20207;-70
2021/09/16 06:06:10;;;;;;;4.13;1.95;;;19.90;99.90;;;;;;5110840;28;20718;-70
2021/09/16 06:08:37;;;;;;;3.22;1.83;;;19.90;99.90;;;;;;5110744;28;20556;-70
2021/09/16 06:11:04;;;;;;;6.22;2.88;;;19.90;99.90;;;;;;5113061;28;20203;-69
2021/09/16 06:13:31;;;;;;;1.80;1.70;;;19.90;99.90;;;;;;5115274;28;20212;-69
2021/09/16 06:15:59;;;;;;;4.15;2.03;;;20.00;99.90;;;;;;5115167;28;20230;-69
2021/09/16 06:18:26;;;;;;;2.42;1.88;;;20.10;99.90;;;;;;5114974;28;20248;-70
2021/09/16 06:20:52;;;;;;;3.28;2.00;;;20.20;99.90;;;;;;5115302;28;20253;-70
2021/09/16 06:23:19;;;;;;;5.05;2.35;;;20.20;99.90;;;;;;5115283;27;20269;-71
2021/09/16 06:25:46;;;;;;;5.78;1.88;;;20.30;99.90;;;;;;5114899;28;20223;-71
2021/09/16 06:28:13;;;;;;;6.85;2.03;;;20.40;99.90;;;;;;5115396;28;20698;-71
2021/09/16 06:30:39;;;;;;;2.95;2.13;;;20.50;99.90;;;;;;5114989;28;20206;-71
2021/09/16 06:33:07;;;;;;;5.10;2.38;;;20.50;99.90;;;;;;5115256;27;20206;-73
2021/09/16 06:35:34;;;;;;;8.15;3.28;;;20.50;99.90;;;;;;5114950;28;20245;-74
2021/09/16 06:38:01;;;;;;;2.30;1.95;;;20.60;99.90;;;;;;5114975;28;20210;-73
2021/09/16 06:40:27;;;;;;;6.20;2.53;;;20.70;99.90;;;;;;5114904;28;20722;-71
2021/09/16 06:42:54;;;;;;;5.45;2.60;;;20.70;99.90;;;;;;5112603;28;20738;-69
2021/09/16 06:45:21;;;;;;;7.03;2.53;;;20.70;99.90;;;;;;5113838;28;20242;-65
2021/09/16 06:47:47;;;;;;;6.38;2.72;;;20.80;99.90;;;;;;5114546;28;20552;-65
2021/09/16 06:50:16;;;;;;;3.47;2.45;;;20.80;99.90;;;;;;5114670;28;20214;-65
2021/09/16 06:52:42;;;;;;;5.10;2.53;;;20.80;99.90;;;;;;5114453;28;20214;-67
2021/09/16 06:55:10;;;;;;;8.35;2.40;;;20.70;99.90;;;;;;5114107;28;20235;-71
2021/09/16 06:57:36;;;;;;;4.78;2.80;;;20.70;99.90;;;;;;5114608;27;20212;-66
2021/09/16 07:00:04;;;;;;;5.25;2.60;;;20.70;99.90;;;;;;5106192;27;20272;-69
2021/09/16 07:02:31;;;;;;;8.70;3.28;;;20.80;99.90;;;;;;5094126;28;20216;-67
2021/09/16 07:04:58;;;;;;;4.43;2.58;;;20.80;99.90;;;;;;5093277;28;20212;-70
2021/09/16 07:07:26;;;;;;;4.93;2.50;;;20.90;99.90;;;;;;5093957;28;20441;-68
2021/09/16 07:09:53;;;;;;;3.35;1.83;;;21.00;99.90;;;;;;5093372;28;20204;-69
2021/09/16 07:12:19;;;;;;;3.15;1.83;;;21.00;99.90;;;;;;5093481;28;20204;-70
2021/09/16 07:14:46;;;;;;;5.40;2.13;;;20.90;99.90;;;;;;5093389;28;20668;-67
2021/09/16 07:17:12;;;;;;;3.13;1.90;;;20.90;99.90;;;;;;5093464;28;20672;-69
2021/09/16 07:19:39;;;;;;;3.78;1.75;;;21.00;99.90;;;;;;5093348;28;20564;-68
2021/09/16 07:22:06;;;;;;;3.72;2.10;;;21.00;99.90;;;;;;5092235;28;20220;-67
2021/09/16 07:24:34;;;;;;;2.80;1.88;;;20.90;99.90;;;;;;5093515;28;20230;-69
2021/09/16 07:27:01;;;;;;;3.83;2.10;;;20.90;99.90;;;;;;5093366;28;20227;-68
2021/09/16 07:29:28;;;;;;;4.65;2.35;;;20.90;99.90;;;;;;5094133;28;20212;-70
2021/09/16 07:31:55;;;;;;;9.45;2.90;;;20.90;99.90;;;;;;5093662;28;20223;-69
2021/09/16 07:34:22;;;;;;;4.10;2.53;;;20.80;99.90;;;;;;5093584;28;20223;-68
2021/09/16 07:36:50;;;;;;;4.10;2.58;;;20.70;99.90;;;;;;5093532;28;20248;-68
2021/09/16 07:39:19;;;;;;;5.43;2.38;;;20.70;99.90;;;;;;5093189;28;20200;-70
2021/09/16 07:41:48;;;;;;;6.35;2.60;;;20.70;99.90;;;;;;5093020;28;20224;-66
2021/09/16 07:44:15;;;;;;;3.40;2.28;;;20.90;99.90;;;;;;5093189;28;20212;-65
2021/09/16 07:46:41;;;;;;;2.95;2.30;;;21.00;99.90;;;;;;5093371;28;20232;-65
2021/09/16 07:49:08;;;;;;;3.08;2.35;;;21.10;99.90;;;;;;5093050;28;20212;-64
2021/09/16 07:51:35;;;;;;;3.45;2.80;;;21.20;99.90;;;;;;5093148;28;20665;-65
2021/09/16 07:54:02;;;;;;;4.22;2.67;;;21.40;99.90;;;;;;5092804;28;20289;-65
2021/09/16 07:56:29;;;;;;;3.65;2.30;;;21.60;99.90;;;;;;5093138;28;20231;-65
2021/09/16 07:58:57;;;;;;;5.15;2.50;;;21.70;99.90;;;;;;5093186;28;20230;-66
2021/09/16 08:01:25;;;;;;;4.85;2.55;;;21.80;99.90;;;;;;5092990;28;20466;-66
2021/09/16 08:03:51;;;;;;;5.65;2.53;;;21.90;99.90;;;;;;5092598;28;20208;-65
2021/09/16 08:06:18;;;;;;;4.28;2.50;;;21.90;99.90;;;;;;5092628;28;20250;-64
2021/09/16 08:08:45;;;;;;;6.40;3.28;;;21.90;99.90;;;;;;5092440;28;20213;-65
2021/09/16 08:11:11;;;;;;;5.53;3.50;;;22.00;99.90;;;;;;5092840;28;20200;-63
2021/09/16 08:13:38;;;;;;;7.82;5.00;;;21.90;99.90;;;;;;5092971;28;20213;-64
2021/09/16 08:16:07;;;;;;;9.88;6.85;;;21.80;99.90;;;;;;5094183;28;20708;-62
2021/09/16 08:18:33;;;;;;;11.40;8.57;;;21.70;99.90;;;;;;5094055;28;20226;-65
2021/09/16 08:21:00;;;;;;;11.25;9.05;;;21.50;99.90;;;;;;5094065;28;20224;-62
2021/09/16 08:23:27;;;;;;;13.68;9.35;;;21.30;99.90;;;;;;5092773;28;20253;-61
2021/09/16 08:25:54;;;;;;;13.10;10.45;;;21.20;99.90;;;;;;5092637;28;20224;-61
2021/09/16 08:28:20;;;;;;;14.30;10.55;;;20.90;99.90;;;;;;5092283;28;20658;-63
2021/09/16 08:30:47;;;;;;;10.57;9.40;;;20.70;99.90;;;;;;5092762;28;20215;-62
2021/09/16 08:33:16;;;;;;;11.18;10.02;;;20.50;99.90;;;;;;5092232;28;20207;-62
2021/09/16 08:35:43;;;;;;;12.15;10.68;;;20.30;99.90;;;;;;5091248;28;20231;-62
2021/09/16 08:38:10;;;;;;;10.40;9.30;;;20.20;99.90;;;;;;5092342;28;20212;-62
2021/09/16 08:40:37;;;;;;;11.38;9.32;;;20.20;99.90;;;;;;5092501;28;20286;-62
2021/09/16 08:43:04;;;;;;;11.68;9.73;;;20.20;99.90;;;;;;5092427;28;20211;-61
2021/09/16 08:45:31;;;;;;;11.18;8.52;;;20.20;99.90;;;;;;5092457;28;20696;-62
2021/09/16 08:47:58;;;;;;;9.70;8.13;;;20.20;99.90;;;;;;5092093;28;20233;-62
2021/09/16 08:50:28;;;;;;;7.97;7.18;;;20.30;99.90;;;;;;5091917;28;20209;-62
2021/09/16 08:52:55;;;;;;;11.38;6.57;;;20.30;99.90;;;;;;5091835;28;20672;-62
2021/09/16 08:55:24;;;;;;;7.72;5.90;;;20.20;99.90;;;;;;5091753;28;20719;-63
2021/09/16 08:57:55;;;;;;;6.05;4.60;;;20.30;99.90;;;;;;5091843;28;20207;-62
2021/09/16 09:00:23;;;;;;;7.68;4.47;;;20.40;99.90;;;;;;5091921;28;20235;-62
2021/09/16 09:02:51;;;;;;;3.97;3.58;;;20.40;99.90;;;;;;5091705;28;20208;-62
2021/09/16 09:05:18;;;;;;;4.20;3.30;;;20.30;99.90;;;;;;5091668;28;20301;-62
2021/09/16 09:07:48;;;;;;;4.38;3.15;;;20.30;99.90;;;;;;5091669;28;20215;-61
2021/09/16 09:10:35;;;;;;;3.38;2.80;;;20.20;99.90;;;;;;5091708;28;20207;-62
2021/09/16 09:13:02;;;;;;;3.13;2.25;;;20.40;99.90;;;;;;5091391;28;20212;-62
2021/09/16 09:15:29;;;;;;;2.85;2.30;;;20.70;99.90;;;;;;5091121;28;20220;-62
2021/09/16 09:18:04;;;;;;;3.33;2.50;;;20.80;99.90;;;;;;5091246;28;20668;-62
2021/09/16 09:20:32;;;;;;;3.08;2.70;;;20.90;99.90;;;;;;5091404;28;20204;-63
2021/09/16 09:23:20;;;;;;;3.80;2.72;;;21.00;99.90;;;;;;5091235;28;20235;-62
2021/09/16 09:25:47;;;;;;;5.03;3.40;;;21.20;99.90;;;;;;5091092;28;20234;-62
2021/09/16 09:28:26;;;;;;;4.90;3.88;;;21.40;99.90;;;;;;5091440;28;20204;-62
2021/09/16 09:30:53;;;;;;;4.55;4.07;;;21.50;99.90;;;;;;5091421;28;20294;-62
2021/09/16 09:33:28;;;;;;;5.40;4.25;;;21.50;99.90;;;;;;5091201;28;20204;-62
2021/09/16 09:35:55;;;;;;;4.35;3.95;;;21.40;99.90;;;;;;5091055;28;20224;-62
2021/09/16 09:38:24;;;;;;;5.55;3.90;;;21.20;99.90;;;;;;5090860;28;20204;-62
2021/09/16 09:40:52;;;;;;;4.65;3.65;;;21.40;99.90;;;;;;5091101;28;20271;-62
2021/09/16 09:43:27;;;;;;;4.93;3.45;;;21.40;99.90;;;;;;5090929;28;20273;-62
2021/09/16 09:46:06;;;;;;;3.38;2.88;;;21.20;99.90;;;;;;5090657;28;20235;-62
2021/09/16 09:48:34;;;;;;;3.53;3.22;;;21.10;99.90;;;;;;5090940;28;20357;-62
2021/09/16 09:51:01;;;;;;;4.45;3.28;;;21.00;99.90;;;;;;5090987;28;20204;-62
2021/09/16 09:53:29;;;;;;;4.32;3.30;;;21.00;99.90;;;;;;5090981;28;20245;-62
2021/09/16 09:55:57;;;;;;;4.80;3.88;;;21.00;99.90;;;;;;5091124;28;20219;-62
2021/09/16 09:58:32;;;;;;;3.95;3.55;;;20.90;99.90;;;;;;5091050;28;20205;-62
2021/09/16 10:01:20;;;;;;;5.45;3.80;;;20.70;99.90;;;;;;5090566;28;20207;-62
2021/09/16 10:03:47;;;;;;;4.20;3.63;;;20.60;99.90;;;;;;5090926;28;20211;-62
2021/09/16 10:06:14;;;;;;;4.63;4.15;;;20.50;99.90;;;;;;5091545;28;20228;-62
2021/09/16 10:08:42;;;;;;;4.38;4.03;;;20.50;99.90;;;;;;5091205;28;20208;-61
2021/09/16 10:11:09;;;;;;;6.07;4.35;;;20.40;99.90;;;;;;5092110;28;20204;-61
2021/09/16 10:13:35;;;;;;;5.03;4.53;;;20.00;99.90;;;;;;5091194;28;20208;-62
2021/09/16 10:16:04;;;;;;;5.15;4.65;;;19.90;99.90;;;;;;5091315;28;20662;-62
2021/09/16 10:18:32;;;;;;;4.57;4.18;;;19.90;99.90;;;;;;5090863;28;20253;-61
2021/09/16 10:21:00;;;;;;;6.18;4.30;;;19.70;99.90;;;;;;5090667;28;20247;-61
2021/09/16 10:23:29;;;;;;;4.90;4.05;;;19.60;99.90;;;;;;5090802;28;20200;-61
2021/09/16 10:25:57;;;;;;;4.28;3.88;;;19.40;99.90;;;;;;5090596;28;20232;-61
2021/09/16 10:28:36;;;;;;;4.22;3.55;;;19.40;99.90;;;;;;5090586;28;20204;-60
2021/09/16 10:31:20;;;;;;;4.38;3.97;;;19.20;99.90;;;;;;5090915;28;20215;-61
2021/09/16 10:33:47;;;;;;;4.63;4.22;;;19.10;99.90;;;;;;5090581;28;20207;-61
2021/09/16 10:36:14;;;;;;;5.28;4.72;;;19.00;99.90;;;;;;5090917;28;20277;-62
2021/09/16 10:38:43;;;;;;;5.00;4.50;;;19.00;99.90;;;;;;5090828;28;20204;-62
2021/09/16 10:41:17;;;;;;;5.43;4.93;;;18.90;99.90;;;;;;5090615;28;20216;-62
2021/09/16 10:43:46;;;;;;;7.50;5.72;;;19.00;99.90;;;;;;5090577;28;20208;-62
2021/09/16 10:46:28;;;;;;;7.05;6.22;;;19.10;99.90;;;;;;5090240;28;20717;-62
2021/09/16 10:48:56;;;;;;;7.63;6.20;;;19.20;99.90;;;;;;5090370;28;20200;-62
2021/09/16 10:51:40;;;;;;;6.47;5.88;;;19.40;99.90;;;;;;5090075;28;20208;-62
2021/09/16 10:54:39;;;;;;;8.93;7.90;;;19.40;99.90;;;;;;5090145;28;20261;-62
2021/09/16 10:57:10;;;;;;;9.05;7.68;;;19.60;99.90;;;;;;5090427;28;20278;-62
2021/09/16 11:00:11;;;;;;;9.15;8.25;;;19.70;99.90;;;;;;5094073;28;20287;-62
2021/09/16 11:03:15;;;;;;;9.07;8.15;;;19.60;99.90;;;;;;5090985;28;20230;-62
2021/09/16 11:05:55;;;;;;;11.50;8.65;;;19.50;99.90;;;;;;5094069;28;20246;-61
2021/09/16 11:08:24;;;;;;;11.05;8.30;;;19.60;99.90;;;;;;5093964;28;20239;-61
2021/09/16 11:10:59;;;;;;;11.40;9.30;;;19.60;99.90;;;;;;5094202;28;20205;-61
2021/09/16 11:13:50;;;;;;;15.43;8.55;;;19.60;99.90;;;;;;5093834;28;20211;-61
2021/09/16 11:16:22;;;;;;;9.52;8.40;;;19.80;99.90;;;;;;5093874;28;20228;-61
2021/09/16 11:18:52;;;;;;;10.82;8.35;;;19.90;99.90;;;;;;5093964;28;20204;-61
2021/09/16 11:21:20;;;;;;;11.27;8.13;;;19.90;99.90;;;;;;5093702;28;20582;-61
2021/09/16 11:23:49;;;;;;;10.77;8.88;;;19.80;99.90;;;;;;5094045;28;20204;-62
2021/09/16 11:26:18;;;;;;;11.18;8.68;;;19.70;99.90;;;;;;5093636;28;20251;-62
2021/09/16 11:28:56;;;;;;;12.35;9.80;;;19.60;99.90;;;;;;5093688;28;20210;-62
2021/09/16 11:31:23;;;;;;;10.15;8.73;;;19.60;99.90;;;;;;5093390;28;20666;-62
2021/09/16 11:33:50;;;;;;;12.07;9.20;;;19.60;99.90;;;;;;5093477;28;20208;-62
2021/09/16 11:36:17;;;;;;;12.73;9.10;;;19.50;99.90;;;;;;5093629;28;20231;-62
2021/09/16 11:38:44;;;;;;;16.10;10.40;;;19.40;99.90;;;;;;5093714;28;20244;-62
2021/09/16 11:41:11;;;;;;;12.82;9.50;;;19.30;99.90;;;;;;5093544;28;20812;-63
2021/09/16 11:43:37;;;;;;;14.38;9.73;;;19.40;99.90;;;;;;5093469;28;20229;-62
2021/09/16 11:46:05;;;;;;;13.48;9.50;;;19.50;99.90;;;;;;5093163;28;20282;-62
2021/09/16 11:48:32;;;;;;;12.60;9.57;;;19.60;99.90;;;;;;5092966;28;20633;-62
2021/09/16 11:51:04;;;;;;;9.50;7.93;;;19.60;99.90;;;;;;5093246;28;20208;-63
2021/09/16 11:53:33;;;;;;;12.05;9.27;;;19.50;99.90;;;;;;5092720;28;20209;-61
2021/09/16 11:56:02;;;;;;;10.85;8.68;;;19.60;99.90;;;;;;5092892;28;20228;-62
2021/09/16 11:58:31;;;;;;;9.40;8.07;;;19.80;99.90;;;;;;5093399;28;20208;-62
2021/09/16 12:01:00;;;;;;;10.95;8.57;;;19.90;99.90;;;;;;5093042;28;20207;-62
2021/09/16 12:03:29;;;;;;;12.43;8.93;;;20.00;99.90;;;;;;5092916;28;20463;-62
2021/09/16 12:05:57;;;;;;;8.80;7.90;;;20.00;99.90;;;;;;5092902;28;20247;-62
2021/09/16 12:08:28;;;;;;;11.85;8.88;;;20.00;99.90;;;;;;5092456;28;20208;-61
2021/09/16 12:11:01;;;;;;;10.30;8.40;;;20.30;99.90;;;;;;5092813;28;20680;-61
2021/09/16 12:13:30;;;;;;;10.25;8.30;;;20.80;99.90;;;;;;5093158;28;20200;-62
2021/09/16 12:16:07;;;;;;;12.13;8.30;;;21.30;99.90;;;;;;5092590;28;20257;-61
2021/09/16 12:18:37;;;;;;;10.43;8.75;;;21.70;99.90;;;;;;5093115;28;20211;-63
2021/09/16 12:21:04;;;;;;;12.00;8.80;;;22.00;99.90;;;;;;5093277;28;20311;-62
2021/09/16 12:23:32;;;;;;;9.07;7.95;;;22.00;99.90;;;;;;5092887;28;20227;-62
2021/09/16 12:26:02;;;;;;;9.05;8.18;;;22.10;99.90;;;;;;5093005;28;20596;-63
2021/09/16 12:28:30;;;;;;;10.18;7.78;;;21.90;99.90;;;;;;5093002;28;20208;-62
2021/09/16 12:31:05;;;;;;;9.90;8.18;;;21.90;99.90;;;;;;5092993;28;20209;-62
2021/09/16 12:33:41;;;;;;;10.45;8.98;;;21.90;99.90;;;;;;5092693;28;20254;-62
2021/09/16 12:36:16;;;;;;;9.75;8.00;;;22.00;99.90;;;;;;5092593;28;20227;-63
2021/09/16 12:38:46;;;;;;;13.45;8.05;;;22.10;99.90;;;;;;5092398;28;20222;-63
2021/09/16 12:41:34;;;;;;;10.50;8.38;;;22.10;99.90;;;;;;5092164;28;20215;-63
2021/09/16 12:44:05;;;;;;;11.73;8.68;;;22.00;99.90;;;;;;5092444;28;20250;-63
2021/09/16 12:46:47;;;;;;;15.68;9.05;;;22.00;99.90;;;;;;5092296;28;20364;-63
2021/09/16 12:49:37;;;;;;;11.93;8.90;;;21.90;99.90;;;;;;5092060;28;20220;-63
2021/09/16 12:52:10;;;;;;;11.05;9.10;;;21.90;99.90;;;;;;5092000;28;20204;-63